Time;durP1;ratioP1;P1;durP2;ratioP2;P2;SDS_P1;SDS_P2;PMS_P1;PMS_P2;Temp;Humidity;BMP_temperature;BMP_pressure;BME280_temperature;BME280_humidity;BME280_pressure;Samples;Min_cycle;Max_cycle;Signal;HPM_P1;HPM_P2
2022/12/21 00:00:24;;;;;;;75.40;37.95;;;2.20;99.90;;;;;;2539462;23;20009;-77
2022/12/21 00:01:25;;;;;;;74.95;37.65;;;2.20;99.90;;;;;;2539560;23;20542;-77
2022/12/21 00:02:26;;;;;;;76.15;38.45;;;2.20;99.90;;;;;;2540482;23;20005;-77
2022/12/21 00:03:26;;;;;;;81.53;39.75;;;2.20;99.90;;;;;;2540625;23;20014;-77
2022/12/21 00:04:27;;;;;;;77.63;37.97;;;2.20;99.90;;;;;;2540567;23;20111;-77
2022/12/21 00:05:28;;;;;;;75.65;37.42;;;2.20;99.90;;;;;;2539544;23;20459;-79
2022/12/21 00:06:32;;;;;;;77.55;39.55;;;2.10;99.90;;;;;;2527273;23;20026;-78
2022/12/21 00:07:32;;;;;;;79.60;38.88;;;2.10;99.90;;;;;;2534968;23;20124;-78
2022/12/21 00:08:39;;;;;;;81.65;40.03;;;2.10;99.90;;;;;;2540516;23;20460;-78
2022/12/21 00:09:39;;;;;;;83.80;42.22;;;2.10;99.90;;;;;;2539410;23;20006;-79
2022/12/21 00:10:40;;;;;;;74.25;36.55;;;2.10;99.90;;;;;;2539453;23;20013;-76
2022/12/21 00:11:40;;;;;;;76.10;39.30;;;2.10;99.90;;;;;;2540382;23;20005;-79
2022/12/21 00:12:41;;;;;;;81.97;41.50;;;2.10;99.90;;;;;;2540246;23;20012;-78
2022/12/21 00:13:43;;;;;;;80.85;41.47;;;2.10;99.90;;;;;;2540448;23;20060;-77
2022/12/21 00:14:44;;;;;;;75.10;38.25;;;2.10;99.90;;;;;;2540206;23;20013;-76
2022/12/21 00:15:54;;;;;;;73.03;37.20;;;2.10;99.90;;;;;;2539298;23;20036;-77
2022/12/21 00:16:55;;;;;;;80.88;39.70;;;2.10;99.90;;;;;;2539541;23;20016;-77
2022/12/21 00:17:55;;;;;;;81.38;40.33;;;2.10;99.90;;;;;;2538853;23;20088;-78
2022/12/21 00:18:58;;;;;;;80.53;40.13;;;2.10;99.90;;;;;;2539284;23;20011;-79
2022/12/21 00:19:58;;;;;;;77.68;38.65;;;2.10;99.90;;;;;;2539290;23;20005;-77
2022/12/21 00:21:03;;;;;;;85.32;42.75;;;2.10;99.90;;;;;;2541383;23;20420;-79
2022/12/21 00:22:03;;;;;;;80.15;39.13;;;2.10;99.90;;;;;;2540517;23;20020;-78
2022/12/21 00:23:04;;;;;;;80.15;40.17;;;2.00;99.90;;;;;;2542391;23;20461;-77
2022/12/21 00:24:05;;;;;;;80.45;39.13;;;2.00;99.90;;;;;;2540262;23;20088;-77
2022/12/21 00:25:06;;;;;;;74.15;37.33;;;2.00;99.90;;;;;;2540519;23;20017;-77
2022/12/21 00:26:07;;;;;;;76.38;38.15;;;2.10;99.90;;;;;;2540290;23;20013;-77
2022/12/21 00:27:08;;;;;;;75.43;36.35;;;2.00;99.90;;;;;;2540556;23;20735;-77
2022/12/21 00:28:08;;;;;;;79.85;39.05;;;2.10;99.90;;;;;;2540420;23;20177;-78
2022/12/21 00:29:09;;;;;;;71.88;35.63;;;2.10;99.90;;;;;;2539296;23;20014;-78
2022/12/21 00:30:10;;;;;;;70.90;35.22;;;2.10;99.90;;;;;;2539260;23;20002;-77
2022/12/21 00:31:16;;;;;;;73.60;35.08;;;2.10;99.90;;;;;;2539382;23;20055;-79
2022/12/21 00:32:16;;;;;;;73.90;36.65;;;2.10;99.90;;;;;;2539152;23;20575;-78
2022/12/21 00:33:17;;;;;;;73.10;35.53;;;2.10;99.90;;;;;;2527475;23;19998;-78
2022/12/21 00:34:18;;;;;;;74.85;36.85;;;2.10;99.90;;;;;;2527224;23;20326;-77
2022/12/21 00:35:19;;;;;;;68.10;34.67;;;2.10;99.90;;;;;;2539366;23;20043;-78
2022/12/21 00:36:21;;;;;;;70.57;34.33;;;2.10;99.90;;;;;;2540423;23;20735;-78
2022/12/21 00:37:23;;;;;;;75.20;35.85;;;2.10;99.90;;;;;;2539272;23;20165;-76
2022/12/21 00:38:25;;;;;;;75.38;35.90;;;2.10;99.90;;;;;;2527695;23;20002;-78
2022/12/21 00:39:25;;;;;;;73.28;35.55;;;2.10;99.90;;;;;;2515306;23;20010;-77
2022/12/21 00:40:26;;;;;;;71.60;34.53;;;2.10;99.90;;;;;;2527178;23;20029;-78
2022/12/21 00:41:28;;;;;;;74.45;35.03;;;2.10;99.90;;;;;;2540316;23;20009;-78
2022/12/21 00:42:28;;;;;;;66.80;34.28;;;2.10;99.90;;;;;;2539475;23;20088;-76
2022/12/21 00:43:30;;;;;;;72.93;34.65;;;2.10;99.90;;;;;;2529428;23;20065;-78
2022/12/21 00:44:31;;;;;;;69.15;34.60;;;2.10;99.90;;;;;;2529497;23;20006;-78
2022/12/21 00:45:34;;;;;;;70.40;34.80;;;2.10;99.90;;;;;;2539453;23;20453;-77
2022/12/21 00:46:35;;;;;;;69.57;34.38;;;2.10;99.90;;;;;;2539369;23;20211;-77
2022/12/21 00:47:35;;;;;;;73.65;35.78;;;2.10;99.90;;;;;;2527281;23;20002;-78
2022/12/21 00:48:36;;;;;;;67.65;33.63;;;2.00;99.90;;;;;;2539396;23;20006;-78
2022/12/21 00:49:36;;;;;;;71.97;34.50;;;2.00;99.90;;;;;;2540314;23;20865;-77
2022/12/21 00:50:37;;;;;;;69.72;34.55;;;2.10;99.90;;;;;;2540140;23;20002;-77
2022/12/21 00:51:38;;;;;;;65.03;32.33;;;2.10;99.90;;;;;;2540169;23;20041;-77
2022/12/21 00:52:38;;;;;;;68.50;33.58;;;2.10;99.90;;;;;;2539243;23;20030;-77
2022/12/21 00:53:40;;;;;;;69.63;35.28;;;2.10;99.90;;;;;;2539256;23;20005;-77
2022/12/21 00:54:43;;;;;;;68.07;33.85;;;2.10;99.90;;;;;;2540119;23;20005;-76
2022/12/21 00:55:58;;;;;;;69.72;34.58;;;2.10;99.90;;;;;;2540234;23;20013;-77
2022/12/21 00:56:58;;;;;;;65.82;32.45;;;2.10;99.90;;;;;;2539262;23;20375;-78
2022/12/21 00:57:59;;;;;;;70.50;33.72;;;2.10;99.90;;;;;;2539332;23;20032;-77
2022/12/21 00:58:59;;;;;;;68.93;34.00;;;2.10;99.90;;;;;;2540258;23;20013;-78
2022/12/21 01:00:02;;;;;;;70.50;34.53;;;2.10;99.90;;;;;;2539021;23;20442;-77
2022/12/21 01:01:10;;;;;;;65.35;32.83;;;2.10;99.90;;;;;;2539270;23;20005;-76
2022/12/21 01:02:11;;;;;;;67.18;32.97;;;2.20;99.90;;;;;;2539597;23;20002;-76
2022/12/21 01:03:11;;;;;;;65.90;32.47;;;2.10;99.90;;;;;;2538062;23;20004;-76
2022/12/21 01:04:12;;;;;;;72.95;34.35;;;2.20;99.90;;;;;;2539395;23;20016;-77
2022/12/21 01:05:12;;;;;;;71.60;34.10;;;2.20;99.90;;;;;;2540157;23;20000;-77
2022/12/21 01:06:16;;;;;;;69.53;33.17;;;2.20;99.90;;;;;;2526968;23;20047;-77
2022/12/21 01:07:18;;;;;;;70.47;34.20;;;2.20;99.90;;;;;;2514042;23;20002;-70
2022/12/21 01:08:21;;;;;;;66.00;33.17;;;2.20;99.90;;;;;;2536590;23;20013;-77
2022/12/21 01:09:21;;;;;;;69.93;32.95;;;2.20;99.90;;;;;;2539372;23;20005;-77
2022/12/21 01:10:22;;;;;;;65.75;32.65;;;2.20;99.90;;;;;;2541659;23;19998;-77
2022/12/21 01:11:24;;;;;;;64.18;32.35;;;2.20;99.90;;;;;;2515423;23;20032;-77
2022/12/21 01:12:25;;;;;;;63.88;32.17;;;2.20;99.90;;;;;;2515711;23;20010;-78
2022/12/21 01:13:27;;;;;;;69.25;34.45;;;2.20;99.90;;;;;;2526838;23;20002;-77
2022/12/21 01:14:28;;;;;;;67.55;33.38;;;2.20;99.90;;;;;;2539387;23;20041;-77
2022/12/21 01:15:28;;;;;;;62.65;32.88;;;2.20;99.90;;;;;;2539061;23;20001;-77
2022/12/21 01:16:30;;;;;;;64.85;32.45;;;2.20;99.90;;;;;;2539102;23;20068;-78
2022/12/21 01:17:31;;;;;;;69.70;33.90;;;2.20;99.90;;;;;;2527198;23;20105;-76
2022/12/21 01:18:31;;;;;;;72.97;34.60;;;2.20;99.90;;;;;;2526871;23;20012;-78
2022/12/21 01:19:35;;;;;;;66.55;33.33;;;2.10;99.90;;;;;;2526963;23;20056;-77
2022/12/21 01:20:45;;;;;;;65.07;32.05;;;2.20;99.90;;;;;;2527294;23;20250;-77
2022/12/21 01:21:45;;;;;;;71.63;33.45;;;2.20;99.90;;;;;;2516727;23;20293;-77
2022/12/21 01:22:46;;;;;;;69.50;33.55;;;2.20;99.90;;;;;;2527343;23;20474;-76
2022/12/21 01:23:48;;;;;;;69.00;34.00;;;2.20;99.90;;;;;;2539093;23;20466;-77
2022/12/21 01:24:48;;;;;;;68.95;34.05;;;2.10;99.90;;;;;;2527178;23;20028;-77
2022/12/21 01:25:50;;;;;;;71.05;34.35;;;2.20;99.90;;;;;;2539035;23;20068;-76
2022/12/21 01:26:50;;;;;;;71.75;35.42;;;2.10;99.90;;;;;;2551632;23;20025;-77
2022/12/21 01:27:51;;;;;;;70.55;34.30;;;2.10;99.90;;;;;;2539055;23;20391;-76
2022/12/21 01:28:52;;;;;;;70.97;34.60;;;2.10;99.90;;;;;;2526898;23;20002;-77
2022/12/21 01:29:52;;;;;;;69.38;34.35;;;2.10;99.90;;;;;;2527079;23;20010;-76
2022/12/21 01:30:53;;;;;;;73.75;34.92;;;2.10;99.90;;;;;;2540117;23;20005;-76
2022/12/21 01:31:53;;;;;;;68.63;34.00;;;2.10;99.90;;;;;;2539823;23;20060;-76
2022/12/21 01:32:54;;;;;;;69.65;34.22;;;2.10;99.90;;;;;;2540977;23;20339;-76
2022/12/21 01:33:55;;;;;;;71.45;35.28;;;2.10;99.90;;;;;;2539434;23;20091;-77
2022/12/21 01:34:56;;;;;;;71.78;34.35;;;2.10;99.90;;;;;;2539578;23;20009;-77
2022/12/21 01:36:10;;;;;;;69.70;33.95;;;2.00;99.90;;;;;;2527049;23;20347;-78
2022/12/21 01:37:10;;;;;;;70.32;33.45;;;2.00;99.90;;;;;;2532009;23;20008;-77
2022/12/21 01:38:12;;;;;;;69.18;34.33;;;2.00;99.90;;;;;;2526820;23;20010;-77
2022/12/21 01:39:13;;;;;;;68.43;33.55;;;2.10;99.90;;;;;;2527286;23;20006;-78
2022/12/21 01:40:14;;;;;;;67.78;33.75;;;2.10;99.90;;;;;;2527129;23;20009;-78
2022/12/21 01:41:23;;;;;;;68.90;34.03;;;2.10;99.90;;;;;;2527069;23;20026;-78
2022/12/21 01:42:24;;;;;;;67.38;32.90;;;2.10;99.90;;;;;;2540038;23;20025;-78
2022/12/21 01:43:44;;;;;;;67.03;33.28;;;2.10;99.90;;;;;;2526643;23;20353;-77
2022/12/21 01:45:00;;;;;;;77.60;34.28;;;2.10;99.90;;;;;;2531906;23;20019;-78
2022/12/21 01:46:03;;;;;;;67.57;33.30;;;2.10;99.90;;;;;;2539772;23;20088;-77
2022/12/21 01:47:03;;;;;;;66.38;32.72;;;2.10;99.90;;;;;;2540188;23;20087;-77
2022/12/21 01:48:13;;;;;;;65.03;33.05;;;2.10;99.90;;;;;;2514690;23;20487;-77
2022/12/21 01:49:27;;;;;;;68.07;33.42;;;2.10;99.90;;;;;;2517946;23;19998;-78
2022/12/21 01:51:02;;;;;;;67.93;33.90;;;2.10;99.90;;;;;;2539829;23;20017;-77
2022/12/21 01:52:07;;;;;;;68.00;32.03;;;2.00;99.90;;;;;;2514750;23;20017;-77
2022/12/21 01:53:33;;;;;;;68.28;32.38;;;2.10;99.90;;;;;;2504351;23;20436;-77
2022/12/21 01:54:43;;;;;;;66.75;32.85;;;2.00;99.90;;;;;;2532429;23;20020;-77
2022/12/21 01:55:47;;;;;;;64.35;32.15;;;2.00;99.90;;;;;;2526751;23;20502;-78
2022/12/21 01:56:50;;;;;;;69.43;34.35;;;2.00;99.90;;;;;;2527615;23;20006;-78
2022/12/21 01:57:51;;;;;;;65.15;32.70;;;2.10;99.90;;;;;;2526990;23;20068;-77
2022/12/21 01:58:52;;;;;;;66.15;33.45;;;2.10;99.90;;;;;;2515116;23;20018;-75
2022/12/21 01:59:55;;;;;;;70.00;34.90;;;2.10;99.90;;;;;;2527036;23;20024;-77
2022/12/21 02:00:58;;;;;;;67.50;32.10;;;2.10;99.90;;;;;;2528039;23;20006;-76
2022/12/21 02:02:06;;;;;;;65.90;33.47;;;2.10;99.90;;;;;;2517782;23;20002;-76
2022/12/21 02:03:13;;;;;;;64.20;32.45;;;2.10;99.90;;;;;;2529617;23;20025;-77
2022/12/21 02:04:14;;;;;;;65.28;32.85;;;2.10;99.90;;;;;;2528317;23;20084;-77
2022/12/21 02:05:41;;;;;;;66.93;32.72;;;2.10;99.90;;;;;;2527623;23;20013;-76
2022/12/21 02:06:50;;;;;;;67.70;32.75;;;2.10;99.90;;;;;;2497521;23;20057;-76
2022/12/21 02:07:53;;;;;;;61.42;31.85;;;2.10;99.90;;;;;;2521142;23;20014;-77
2022/12/21 02:08:54;;;;;;;67.10;33.47;;;2.10;99.90;;;;;;2527090;23;20491;-78
2022/12/21 02:09:55;;;;;;;64.00;32.67;;;2.10;99.90;;;;;;2527215;23;20037;-77
2022/12/21 02:10:57;;;;;;;67.72;33.00;;;2.10;99.90;;;;;;2539954;23;20157;-77
2022/12/21 02:12:01;;;;;;;68.50;33.53;;;2.10;99.90;;;;;;2526887;23;20331;-78
2022/12/21 02:13:05;;;;;;;63.60;33.20;;;2.00;99.90;;;;;;2526778;23;20005;-78
2022/12/21 02:14:13;;;;;;;67.28;33.70;;;2.10;99.90;;;;;;2515548;23;20512;-78
2022/12/21 02:15:13;;;;;;;67.00;33.28;;;2.00;99.90;;;;;;2528649;23;20023;-78
2022/12/21 02:16:14;;;;;;;67.18;33.45;;;2.10;99.90;;;;;;2540027;23;20032;-78
2022/12/21 02:17:21;;;;;;;65.70;32.55;;;2.10;99.90;;;;;;2540038;23;20037;-80
2022/12/21 02:18:59;;;;;;;67.13;33.50;;;2.00;99.90;;;;;;2539850;23;20064;-78
2022/12/21 02:20:42;;;;;;;63.92;31.73;;;2.10;99.90;;;;;;2514304;23;20014;-78
2022/12/21 02:21:51;;;;;;;69.07;33.45;;;2.00;99.90;;;;;;2514198;23;20016;-77
2022/12/21 02:23:11;;;;;;;75.07;34.33;;;2.00;99.90;;;;;;2537816;23;20589;-77
2022/12/21 02:24:27;;;;;;;67.18;32.90;;;2.00;99.90;;;;;;2526970;23;20097;-78
2022/12/21 02:25:56;;;;;;;65.57;33.50;;;2.00;99.90;;;;;;2529932;23;20108;-78
2022/12/21 02:27:31;;;;;;;69.63;34.22;;;2.00;99.90;;;;;;2526535;23;20450;-78
2022/12/21 02:29:00;;;;;;;65.68;32.20;;;2.00;99.90;;;;;;2521626;23;20017;-78
2022/12/21 02:30:20;;;;;;;66.28;32.88;;;2.00;99.90;;;;;;2520761;23;20002;-78
2022/12/21 02:31:41;;;;;;;;;;;2.00;99.90;;;;;;2519206;23;20011;-78
2022/12/21 02:33:00;;;;;;;65.90;31.88;;;2.10;99.90;;;;;;2531175;23;19904;-78
2022/12/21 02:34:27;;;;;;;64.45;31.20;;;2.10;99.90;;;;;;2539775;23;20521;-78
2022/12/21 02:35:41;;;;;;;61.15;31.05;;;2.10;99.90;;;;;;2535899;23;20192;-77
2022/12/21 02:37:00;;;;;;;61.05;31.30;;;2.20;99.90;;;;;;2539534;23;20013;-78
2022/12/21 02:38:41;;;;;;;62.65;31.73;;;2.20;99.90;;;;;;2526781;23;20069;-78
2022/12/21 02:40:10;;;;;;;60.40;30.83;;;2.20;99.90;;;;;;2535083;23;20010;-78
2022/12/21 02:41:10;;;;;;;58.83;30.38;;;2.10;99.90;;;;;;2539044;23;20009;-78
2022/12/21 02:44:35;;;;;;;62.38;30.35;;;2.10;99.90;;;;;;2519819;23;20470;-78
2022/12/21 02:45:52;;;;;;;59.92;30.65;;;2.20;99.90;;;;;;2538920;23;20656;-78
2022/12/21 02:47:13;;;;;;;56.53;28.95;;;2.20;99.90;;;;;;2539247;23;20069;-78
2022/12/21 02:48:26;;;;;;;60.42;30.55;;;2.20;99.90;;;;;;2531096;23;20017;-78
2022/12/21 02:49:35;;;;;;;60.35;30.85;;;2.20;99.90;;;;;;2529414;23;20064;-78
2022/12/21 02:50:40;;;;;;;58.72;30.80;;;2.20;99.90;;;;;;2528774;23;21050;-78
2022/12/21 02:51:58;;;;;;;59.20;30.60;;;2.20;99.90;;;;;;2527157;23;20010;-78
2022/12/21 02:53:17;;;;;;;58.78;30.42;;;2.20;99.90;;;;;;2539357;23;20088;-78
2022/12/21 02:54:19;;;;;;;58.97;30.98;;;2.20;99.90;;;;;;2538940;23;20009;-78
2022/12/21 02:55:20;;;;;;;58.50;31.55;;;2.20;99.90;;;;;;2526891;23;20399;-78
2022/12/21 02:56:21;;;;;;;58.90;31.30;;;2.20;99.90;;;;;;2526550;23;20570;-78
2022/12/21 02:57:36;;;;;;;56.63;29.77;;;2.20;99.90;;;;;;2538946;23;20025;-79
2022/12/21 02:58:36;;;;;;;57.83;29.98;;;2.20;99.90;;;;;;2539482;23;20525;-80
2022/12/21 02:59:43;;;;;;;60.28;31.13;;;2.20;99.90;;;;;;2538717;23;20001;-78
2022/12/21 03:00:51;;;;;;;57.10;30.20;;;2.20;99.90;;;;;;2528074;23;20132;-78
2022/12/21 03:02:28;;;;;;;56.55;30.17;;;2.20;99.90;;;;;;2528102;23;20009;-78
2022/12/21 03:03:48;;;;;;;56.10;29.77;;;2.30;99.90;;;;;;2533524;23;20100;-78
2022/12/21 03:05:12;;;;;;;56.83;29.60;;;2.30;99.90;;;;;;2530667;23;20010;-77
2022/12/21 03:06:45;;;;;;;56.90;29.65;;;2.30;99.90;;;;;;2543264;23;20082;-78
2022/12/21 03:08:21;;;;;;;56.03;29.23;;;2.30;99.90;;;;;;2533063;23;20650;-78
2022/12/21 03:09:55;;;;;;;56.88;29.30;;;2.30;99.90;;;;;;2520936;23;20084;-77
2022/12/21 03:11:03;;;;;;;56.08;29.35;;;2.30;99.90;;;;;;2538703;23;20217;-77
2022/12/21 03:12:15;;;;;;;56.90;30.00;;;2.30;99.90;;;;;;2538612;23;20005;-77
2022/12/21 03:13:29;;;;;;;55.40;29.48;;;2.20;99.90;;;;;;2538879;23;20114;-77
2022/12/21 03:14:48;;;;;;;55.95;29.98;;;2.20;99.90;;;;;;2539757;23;20002;-69
2022/12/21 03:16:27;;;;;;;56.70;29.42;;;2.20;99.90;;;;;;2538705;23;20435;-69
2022/12/21 03:17:31;;;;;;;59.38;30.65;;;2.20;99.90;;;;;;2539623;23;20064;-69
2022/12/21 03:18:48;;;;;;;56.25;30.27;;;2.20;99.90;;;;;;2539541;23;20096;-69
2022/12/21 03:19:55;;;;;;;56.53;29.55;;;2.20;99.90;;;;;;2538797;23;20047;-69
2022/12/21 03:21:07;;;;;;;56.85;30.45;;;2.20;99.90;;;;;;2538890;23;20423;-69
2022/12/21 03:22:31;;;;;;;54.58;29.20;;;2.20;99.90;;;;;;2529097;23;20057;-69
2022/12/21 03:23:36;;;;;;;53.88;29.40;;;2.20;99.90;;;;;;2540056;23;20013;-69
2022/12/21 03:24:56;;;;;;;55.65;29.48;;;2.20;99.90;;;;;;2539722;23;20085;-69
2022/12/21 03:26:20;;;;;;;57.00;29.98;;;2.20;99.90;;;;;;2538940;23;20001;-69
2022/12/21 03:27:31;;;;;;;54.08;29.20;;;2.20;99.90;;;;;;2539116;23;20033;-69
2022/12/21 03:28:35;;;;;;;57.72;30.45;;;2.20;99.90;;;;;;2539775;23;20256;-69
2022/12/21 03:29:41;;;;;;;51.80;28.63;;;2.20;99.90;;;;;;2539652;23;20395;-68
2022/12/21 03:30:46;;;;;;;54.05;29.38;;;2.20;99.90;;;;;;2539743;23;20101;-68
2022/12/21 03:31:54;;;;;;;56.65;30.33;;;2.20;99.90;;;;;;2539451;23;20037;-68
2022/12/21 03:32:57;;;;;;;57.85;30.75;;;2.20;99.90;;;;;;2538529;23;20006;-69
2022/12/21 03:34:08;;;;;;;56.58;30.60;;;2.20;99.90;;;;;;2538778;23;20502;-69
2022/12/21 03:35:26;;;;;;;53.85;28.52;;;2.20;99.90;;;;;;2539340;23;20009;-69
2022/12/21 03:36:36;;;;;;;52.20;29.15;;;2.20;99.90;;;;;;2539601;23;20005;-69
2022/12/21 03:37:39;;;;;;;58.78;30.98;;;2.20;99.90;;;;;;2539479;23;20096;-68
2022/12/21 03:38:55;;;;;;;56.80;30.23;;;2.20;99.90;;;;;;2539459;23;20025;-68
2022/12/21 03:40:27;;;;;;;57.45;30.10;;;2.20;99.90;;;;;;2539681;23;20096;-67
2022/12/21 03:41:47;;;;;;;55.00;29.02;;;2.20;99.90;;;;;;2527020;23;20021;-68
2022/12/21 03:43:15;;;;;;;57.03;30.33;;;2.20;99.90;;;;;;2539962;23;20097;-68
2022/12/21 03:44:20;;;;;;;57.63;30.58;;;2.20;99.90;;;;;;2539580;23;20048;-68
2022/12/21 03:45:26;;;;;;;56.17;30.25;;;2.20;99.90;;;;;;2539663;23;20001;-69
2022/12/21 03:46:35;;;;;;;56.30;30.25;;;2.20;99.90;;;;;;2539947;23;20804;-70
2022/12/21 03:47:37;;;;;;;55.88;29.85;;;2.20;99.90;;;;;;2526865;23;20089;-68
2022/12/21 03:48:47;;;;;;;55.53;29.63;;;2.10;99.90;;;;;;2526907;23;20483;-70
2022/12/21 03:50:00;;;;;;;57.78;30.75;;;2.20;99.90;;;;;;2539466;23;20005;-70
2022/12/21 03:51:06;;;;;;;55.92;30.05;;;2.20;99.90;;;;;;2526529;23;20075;-70
2022/12/21 03:52:12;;;;;;;56.50;30.02;;;2.10;99.90;;;;;;2515456;23;20543;-70
2022/12/21 03:53:34;;;;;;;52.20;29.27;;;2.10;99.90;;;;;;2515851;23;20022;-68
2022/12/21 03:54:48;;;;;;;56.55;30.15;;;2.20;99.90;;;;;;2531334;23;20022;-69
2022/12/21 03:55:50;;;;;;;59.10;30.98;;;2.20;99.90;;;;;;2540233;23;20009;-69
2022/12/21 03:56:51;;;;;;;59.88;31.17;;;2.20;99.90;;;;;;2542562;23;20314;-69
2022/12/21 03:57:56;;;;;;;58.22;30.17;;;2.10;99.90;;;;;;2529529;23;20032;-71
2022/12/21 03:58:57;;;;;;;55.22;31.23;;;2.20;99.90;;;;;;2530160;23;20013;-69
2022/12/21 04:00:00;;;;;;;56.38;30.48;;;2.20;99.90;;;;;;2527189;23;20052;-70
2022/12/21 04:01:03;;;;;;;56.05;30.15;;;2.20;99.90;;;;;;2527683;23;20109;-70
2022/12/21 04:02:14;;;;;;;57.15;30.45;;;2.20;99.90;;;;;;2540128;23;20086;-70
2022/12/21 04:03:26;;;;;;;56.33;30.30;;;2.20;99.90;;;;;;2542366;23;20410;-70
2022/12/21 04:04:59;;;;;;;55.20;29.65;;;2.20;99.90;;;;;;2540110;23;20014;-70
2022/12/21 04:06:23;;;;;;;57.10;29.58;;;2.20;99.90;;;;;;2540392;23;20392;-71
2022/12/21 04:07:26;;;;;;;58.83;30.20;;;2.20;99.90;;;;;;2533556;23;20035;-71
2022/12/21 04:08:27;;;;;;;57.88;30.40;;;2.20;99.90;;;;;;2540521;23;20017;-70
2022/12/21 04:09:28;;;;;;;59.63;31.17;;;2.20;99.90;;;;;;2540083;23;20009;-69
2022/12/21 04:10:28;;;;;;;56.60;30.75;;;2.20;99.90;;;;;;2540456;23;20077;-69
2022/12/21 04:12:55;;;;;;;58.70;30.67;;;2.20;99.90;;;;;;2542354;23;20012;-69
2022/12/21 04:13:56;;;;;;;59.47;31.80;;;2.20;99.90;;;;;;2540387;23;20005;-69
2022/12/21 04:14:56;;;;;;;56.78;30.60;;;2.20;99.90;;;;;;2540274;23;20001;-70
2022/12/21 04:16:03;;;;;;;59.28;31.13;;;2.20;99.90;;;;;;2540358;23;20012;-70
2022/12/21 04:17:04;;;;;;;56.58;30.92;;;2.20;99.90;;;;;;2540124;23;20066;-69
2022/12/21 04:18:04;;;;;;;55.40;29.95;;;2.20;99.90;;;;;;2527524;23;20108;-69
2022/12/21 04:20:24;;;;;;;54.15;29.23;;;2.20;99.90;;;;;;2540655;23;20017;-69
2022/12/21 04:21:27;;;;;;;55.85;29.77;;;2.20;99.90;;;;;;2540084;23;20048;-69
2022/12/21 04:28:28;;;;;;;57.72;30.48;;;2.20;99.90;;;;;;2540453;23;20006;-69
2022/12/21 04:29:29;;;;;;;56.75;29.52;;;2.20;99.90;;;;;;2540133;23;20109;-68
2022/12/21 04:30:29;;;;;;;54.92;29.27;;;2.20;99.90;;;;;;2540491;23;20044;-69
2022/12/21 04:31:30;;;;;;;56.22;30.00;;;2.20;99.90;;;;;;2527136;23;20085;-68
2022/12/21 04:32:31;;;;;;;54.63;29.25;;;2.20;99.90;;;;;;2527267;23;20482;-69
2022/12/21 04:33:31;;;;;;;55.95;30.42;;;2.30;99.90;;;;;;2540158;23;20439;-70
2022/12/21 04:34:32;;;;;;;55.40;29.83;;;2.20;99.90;;;;;;2540399;23;20025;-68
2022/12/21 04:35:33;;;;;;;56.47;29.95;;;2.20;99.90;;;;;;2540159;23;20017;-69
2022/12/21 04:37:53;;;;;;;56.40;29.92;;;2.30;99.90;;;;;;2540386;23;20037;-69
2022/12/21 04:38:53;;;;;;;57.83;30.27;;;2.30;99.90;;;;;;2525146;23;20093;-69
2022/12/21 04:39:54;;;;;;;57.50;30.10;;;2.30;99.90;;;;;;2527341;23;20013;-69
2022/12/21 04:40:56;;;;;;;55.90;29.83;;;2.30;99.90;;;;;;2542658;23;20021;-69
2022/12/21 04:41:56;;;;;;;57.92;30.52;;;2.30;99.90;;;;;;2542820;23;20058;-69
2022/12/21 04:42:57;;;;;;;55.53;29.98;;;2.30;99.90;;;;;;2540273;23;20072;-70
2022/12/21 04:43:57;;;;;;;52.00;28.52;;;2.30;99.90;;;;;;2540317;23;20036;-70
2022/12/21 04:44:58;;;;;;;53.17;28.33;;;2.30;99.90;;;;;;2540161;23;20013;-69
2022/12/21 04:46:11;;;;;;;54.35;28.52;;;2.40;99.90;;;;;;2540283;23;20506;-69
2022/12/21 04:47:12;;;;;;;52.90;28.42;;;2.40;99.90;;;;;;2541368;23;20014;-70
2022/12/21 04:48:13;;;;;;;55.33;28.05;;;2.40;99.90;;;;;;2527131;23;20005;-70
2022/12/21 04:49:14;;;;;;;50.95;27.67;;;2.30;99.90;;;;;;2527306;23;19998;-69
2022/12/21 04:50:14;;;;;;;53.42;28.05;;;2.30;99.90;;;;;;2540251;23;20516;-70
2022/12/21 04:51:17;;;;;;;52.45;28.52;;;2.30;99.90;;;;;;2540216;23;20449;-70
2022/12/21 04:52:18;;;;;;;51.53;28.75;;;2.30;99.90;;;;;;2540072;23;20013;-69
2022/12/21 04:53:18;;;;;;;52.35;28.13;;;2.40;99.90;;;;;;2540186;23;20438;-69
2022/12/21 04:54:19;;;;;;;52.17;27.98;;;2.40;99.90;;;;;;2539988;23;20015;-69
2022/12/21 04:55:19;;;;;;;50.38;27.63;;;2.40;99.90;;;;;;2527031;23;20017;-69
2022/12/21 04:56:20;;;;;;;56.00;28.73;;;2.40;99.90;;;;;;2527099;23;19994;-68
2022/12/21 04:57:21;;;;;;;52.13;28.30;;;2.40;99.90;;;;;;2527160;23;20493;-68
2022/12/21 04:58:22;;;;;;;51.80;27.98;;;2.40;99.90;;;;;;2515094;23;19998;-68
2022/12/21 04:59:24;;;;;;;52.55;28.67;;;2.40;99.90;;;;;;2527407;23;20505;-70
2022/12/21 05:00:25;;;;;;;52.38;28.67;;;2.50;99.90;;;;;;2540374;23;20072;-70
2022/12/21 05:01:25;;;;;;;52.10;27.45;;;2.50;99.90;;;;;;2540395;23;20006;-79
2022/12/21 05:02:27;;;;;;;52.38;28.48;;;2.50;99.90;;;;;;2540419;23;20435;-70
2022/12/21 05:03:28;;;;;;;50.80;27.85;;;2.50;99.90;;;;;;2540825;23;20014;-70
2022/12/21 05:04:29;;;;;;;49.55;27.98;;;2.50;99.90;;;;;;2542479;23;20028;-69
2022/12/21 05:05:29;;;;;;;50.65;27.88;;;2.50;99.90;;;;;;2527112;23;20013;-70
2022/12/21 05:06:30;;;;;;;54.03;29.48;;;2.40;99.90;;;;;;2527032;23;20006;-70
2022/12/21 05:07:30;;;;;;;54.15;28.33;;;2.40;99.90;;;;;;2536719;23;20005;-69
2022/12/21 05:08:31;;;;;;;54.10;29.02;;;2.40;99.90;;;;;;2540136;23;20235;-70
2022/12/21 05:09:31;;;;;;;50.72;27.48;;;2.40;99.90;;;;;;2539912;23;20016;-69
2022/12/21 05:10:32;;;;;;;50.28;27.88;;;2.40;99.90;;;;;;2540262;23;20005;-68
2022/12/21 05:11:34;;;;;;;54.55;28.90;;;2.40;99.90;;;;;;2539918;23;20044;-68
2022/12/21 05:12:35;;;;;;;55.47;28.52;;;2.40;99.90;;;;;;2540181;23;20092;-69
2022/12/21 05:13:35;;;;;;;51.70;28.27;;;2.40;99.90;;;;;;2540102;23;20037;-71
2022/12/21 05:14:36;;;;;;;50.78;27.83;;;2.40;99.90;;;;;;2539997;23;20540;-67
2022/12/21 05:15:37;;;;;;;52.70;28.92;;;2.40;99.90;;;;;;2540045;23;21017;-68
2022/12/21 05:16:38;;;;;;;54.15;28.50;;;2.40;99.90;;;;;;2540207;23;20001;-69
2022/12/21 05:17:39;;;;;;;52.42;27.77;;;2.40;99.90;;;;;;2540255;23;20020;-68
2022/12/21 05:18:40;;;;;;;50.80;27.83;;;2.50;99.90;;;;;;2540249;23;20056;-66
2022/12/21 05:19:41;;;;;;;50.25;27.70;;;2.50;99.90;;;;;;2527089;23;20118;-69
2022/12/21 05:20:42;;;;;;;52.47;28.52;;;2.50;99.90;;;;;;2527392;23;20045;-68
2022/12/21 05:21:43;;;;;;;54.25;28.55;;;2.50;99.90;;;;;;2542361;23;20002;-68
2022/12/21 05:22:46;;;;;;;51.90;28.17;;;2.50;99.90;;;;;;2540058;23;20020;-68
2022/12/21 05:23:47;;;;;;;50.55;27.65;;;2.50;99.90;;;;;;2540143;23;20007;-68
2022/12/21 05:24:47;;;;;;;49.58;27.33;;;2.50;99.90;;;;;;2540037;23;20036;-68
2022/12/21 05:25:48;;;;;;;54.70;29.58;;;2.50;99.90;;;;;;2540074;23;20009;-68
2022/12/21 05:26:48;;;;;;;51.13;28.27;;;2.60;99.90;;;;;;2540180;23;20070;-68
2022/12/21 05:27:49;;;;;;;54.63;30.50;;;2.60;99.90;;;;;;2540126;23;20044;-69
2022/12/21 05:28:49;;;;;;;51.78;28.52;;;2.50;99.90;;;;;;2539963;23;20040;-69
2022/12/21 05:29:50;;;;;;;56.45;30.98;;;2.60;99.90;;;;;;2540046;23;20014;-69
2022/12/21 05:30:50;;;;;;;54.65;29.52;;;2.60;99.90;;;;;;2539938;23;20005;-69
2022/12/21 05:31:51;;;;;;;53.75;30.25;;;2.60;99.90;;;;;;2540245;23;20039;-69
2022/12/21 05:32:51;;;;;;;52.72;28.33;;;2.60;99.90;;;;;;2540063;23;20096;-69
2022/12/21 05:33:53;;;;;;;55.25;30.08;;;2.60;99.90;;;;;;2540091;23;20059;-70
2022/12/21 05:34:53;;;;;;;55.45;31.40;;;2.60;99.90;;;;;;2528857;23;20012;-68
2022/12/21 05:35:54;;;;;;;56.97;31.40;;;2.60;99.90;;;;;;2539331;23;20005;-68
2022/12/21 05:36:54;;;;;;;54.10;29.63;;;2.50;99.90;;;;;;2540133;23;20017;-68
2022/12/21 05:37:55;;;;;;;52.47;29.23;;;2.50;99.90;;;;;;2540077;23;20016;-69
2022/12/21 05:38:57;;;;;;;52.88;29.10;;;2.50;99.90;;;;;;2540341;23;20137;-69
2022/12/21 05:39:57;;;;;;;53.67;29.75;;;2.50;99.90;;;;;;2542351;23;20020;-68
2022/12/21 05:40:58;;;;;;;56.80;29.95;;;2.50;99.90;;;;;;2539587;23;20013;-69
2022/12/21 05:41:59;;;;;;;52.90;29.88;;;2.50;99.90;;;;;;2539223;23;20021;-69
2022/12/21 05:43:03;;;;;;;55.33;29.65;;;2.50;99.90;;;;;;2539163;23;20512;-68
2022/12/21 05:44:04;;;;;;;52.00;28.73;;;2.50;99.90;;;;;;2540010;23;20371;-69
2022/12/21 05:45:05;;;;;;;48.65;27.85;;;2.50;99.90;;;;;;2539779;23;20045;-69
2022/12/21 05:46:08;;;;;;;55.70;30.02;;;2.50;99.90;;;;;;2540029;23;20003;-69
2022/12/21 05:47:08;;;;;;;50.15;27.98;;;2.50;99.90;;;;;;2539527;23;20005;-68
2022/12/21 05:48:09;;;;;;;61.58;32.85;;;2.50;99.90;;;;;;2540045;23;20387;-68
2022/12/21 05:49:11;;;;;;;55.78;30.58;;;2.60;99.90;;;;;;2539745;23;20646;-68
2022/12/21 05:50:11;;;;;;;58.60;31.02;;;2.60;99.90;;;;;;2539988;23;20029;-68
2022/12/21 05:51:14;;;;;;;56.78;30.90;;;2.60;99.90;;;;;;2539906;23;20009;-69